Monarch Pass, CO

1:59 PM MDT on May 20, 2018 (GMT -0600)
Monarch Pass

Weather History for KMYP - May, 2014

Change the Weather History Date:

Tuesday, May 6, 2014

  Actual Average (KALS) Record (KALS)
Temperature  
Mean Temperature 41 °F -  
Max Temperature 50 °F 62 °F 80 °F (2009)
Min Temperature 32 °F 31 °F 17 °F (1950)
Degree Days  
Heating Degree Days 24    
Moisture  
Dew Point 7 °F    
Average Humidity 28    
Maximum Humidity 41    
Minimum Humidity 16    
Precipitation  
Precipitation 0.00 in - - ()
Sea Level Pressure  
Sea Level Pressure 30.11 in    
Wind  
Wind Speed 25 mph (WSW)    
Max Wind Speed 39 mph    
Max Gust Speed 48 mph    
Visibility 10 miles    
Events      
Averages and records for this station are not official NWS values.
T = Trace of Precipitation, MM = Missing Value Source: NWS Daily Summary

Daily Weather History Graph

Daily Weather History Graph

Search for Another Location

Airport or City:

Astronomy

May. 06, 2014 Rise Set
Actual Time 6:02 AM MDT 8:00 PM MDT
Civil Twilight 5:33 AM MDT 8:29 PM MDT
Nautical Twilight 4:58 AM MDT 9:05 PM MDT
Astronomical Twilight 4:20 AM MDT 9:43 PM MDT
Moon 12:19 PM MDT (5/6) 1:22 AM MDT (5/6)
Length of Visible Light 14h 56m
Length of Day
13h 58m
Waxing Crescent, 46% of the Moon is Illuminated
May 6
Waxing Crescent
May 6
First Quarter
May 14
Full
May 21
Last Quarter
May 28
New

Hourly Weather History & Observations

Time (MDT) Temp. Windchill Dew Point Humidity Pressure Visibility Wind Dir Wind Speed Gust Speed Precip Events Conditions
12:12 AM 35.6 °F 25.2 °F 5.0 °F 28% 30.28 in 10.0 mi WSW 18.4 mph - N/A   Clear
12:30 AM 35.6 °F 25.5 °F 5.0 °F 28% 30.27 in 10.0 mi WSW 17.3 mph - N/A   Clear
12:56 AM 35.6 °F 25.2 °F 5.0 °F 28% 30.25 in 10.0 mi West 18.4 mph - N/A   Clear
1:13 AM 35.6 °F 24.5 °F 5.0 °F 28% 30.24 in 10.0 mi West 20.7 mph - N/A   Clear
1:37 AM 35.6 °F 23.4 °F 5.0 °F 28% 30.22 in 10.0 mi WSW 25.3 mph - N/A   Clear
5:56 AM 32.0 °F 18.4 °F 8.6 °F 38% 30.16 in 10.0 mi West 26.5 mph - N/A   Clear
6:06 AM 32.0 °F 18.4 °F 8.6 °F 38% 30.15 in 10.0 mi West 26.5 mph - N/A   Clear
6:37 AM 32.0 °F 18.1 °F 8.6 °F 38% 30.15 in 10.0 mi West 27.6 mph - N/A   Clear
6:55 AM 32.0 °F 18.6 °F 8.6 °F 38% 30.16 in 10.0 mi West 25.3 mph - N/A   Clear
7:14 AM 32.0 °F 18.1 °F 8.6 °F 38% 30.15 in 10.0 mi West 27.6 mph - N/A   Clear
8:17 AM 33.8 °F 21.0 °F 10.4 °F 38% 30.17 in 10.0 mi West 25.3 mph 33.4 mph N/A   Clear
8:32 AM 33.8 °F 20.5 °F 10.4 °F 38% 30.16 in 10.0 mi West 27.6 mph 39.1 mph N/A   Clear
8:49 AM 33.8 °F 20.5 °F 12.2 °F 41% 30.15 in 10.0 mi West 27.6 mph 38.0 mph N/A   Clear
9:15 AM 33.8 °F 20.3 °F 12.2 °F 41% 30.15 in 10.0 mi West 28.8 mph 34.5 mph N/A   Clear
9:32 AM 33.8 °F 20.5 °F 12.2 °F 41% 30.15 in 10.0 mi West 27.6 mph 33.4 mph N/A   Clear
9:54 AM 35.6 °F 25.2 °F 12.2 °F 38% 30.15 in 10.0 mi WSW 18.4 mph 28.8 mph N/A   Clear
10:15 AM 37.4 °F 26.4 °F 12.2 °F 36% 30.15 in 10.0 mi WSW 23.0 mph 33.4 mph N/A   Clear
10:36 AM 37.4 °F 26.6 °F 10.4 °F 33% 30.14 in 10.0 mi WSW 21.9 mph 32.2 mph N/A   Clear
10:57 AM 39.2 °F 28.5 °F 12.2 °F 33% 30.13 in 10.0 mi WSW 24.2 mph 29.9 mph N/A   Clear
11:14 AM 41.0 °F 30.5 °F 12.2 °F 31% 30.13 in 10.0 mi SW 26.5 mph 35.7 mph N/A   Clear
11:36 AM 41.0 °F 31.6 °F 12.2 °F 31% 30.13 in 10.0 mi WSW 20.7 mph 34.5 mph N/A   Clear
11:57 AM 42.8 °F 34.0 °F 14.0 °F 31% 30.12 in 10.0 mi West 20.7 mph 27.6 mph N/A   Scattered Clouds
12:16 PM 42.8 °F 34.5 °F 12.2 °F 29% 30.12 in 10.0 mi West 18.4 mph 25.3 mph N/A   Mostly Cloudy
12:36 PM 44.6 °F 38.1 °F 14.0 °F 29% 30.11 in 10.0 mi WSW 13.8 mph 27.6 mph N/A   Mostly Cloudy
12:56 PM 44.6 °F 35.3 °F 12.2 °F 27% 30.10 in 10.0 mi WSW 26.5 mph 35.7 mph N/A   Scattered Clouds
1:15 PM 46.4 °F 38.5 °F 8.6 °F 22% 30.10 in 10.0 mi SW 21.9 mph 43.7 mph N/A   Clear
1:37 PM 46.4 °F 38.3 °F 8.6 °F 22% 30.09 in 10.0 mi West 23.0 mph 34.5 mph N/A   Scattered Clouds
1:57 PM 48.2 °F - 5.0 °F 17% 30.08 in 10.0 mi WSW 28.8 mph 46.0 mph N/A   Scattered Clouds
2:12 PM 50.0 °F - 6.8 °F 17% 30.07 in 10.0 mi SW 31.1 mph 41.4 mph N/A   Scattered Clouds
2:31 PM 46.4 °F 36.9 °F 3.2 °F 17% 30.06 in 10.0 mi SSW 32.2 mph 40.3 mph N/A   Mostly Cloudy
2:57 PM 48.2 °F - 3.2 °F 16% 30.06 in 10.0 mi SW 33.4 mph 42.6 mph N/A   Scattered Clouds
3:10 PM 46.4 °F 36.9 °F 3.2 °F 17% 30.06 in 10.0 mi SSW 32.2 mph 40.3 mph N/A   Clear
3:36 PM 44.6 °F 34.2 °F 3.2 °F 18% 30.05 in 10.0 mi WSW 33.4 mph 44.9 mph N/A   Scattered Clouds
3:56 PM 44.6 °F 34.2 °F 1.4 °F 17% 30.05 in 10.0 mi WSW 33.4 mph 44.9 mph N/A   Scattered Clouds
4:17 PM 44.6 °F 34.7 °F 3.2 °F 18% 30.05 in 10.0 mi SW 29.9 mph 39.1 mph N/A   Overcast
4:36 PM 44.6 °F 36.1 °F 3.2 °F 18% 30.06 in 10.0 mi WSW 21.9 mph 38.0 mph N/A   Mostly Cloudy
4:52 PM 44.6 °F 34.4 °F 1.4 °F 17% 30.05 in 10.0 mi WSW 32.2 mph 41.4 mph N/A   Scattered Clouds
5:16 PM 44.6 °F 35.9 °F 3.2 °F 18% 30.05 in 10.0 mi WSW 23.0 mph 41.4 mph N/A   Clear
5:36 PM 42.8 °F 31.8 °F 3.2 °F 19% 30.05 in 10.0 mi WSW 33.4 mph 44.9 mph N/A   Clear
5:54 PM 42.8 °F 31.9 °F 3.2 °F 19% 30.05 in 10.0 mi SW 32.2 mph 40.3 mph N/A   Clear
6:07 PM 41.0 °F 28.5 °F 1.4 °F 19% 30.05 in 10.0 mi WSW 39.1 mph 48.3 mph N/A   Clear
6:29 PM 39.2 °F 26.6 °F 3.2 °F 22% 30.05 in 10.0 mi SW 34.5 mph 43.7 mph N/A   Clear
6:52 PM 39.2 °F 27.6 °F 5.0 °F 24% 30.06 in 10.0 mi SW 28.8 mph 43.7 mph N/A   Clear
7:17 PM 37.4 °F 25.0 °F 6.8 °F 28% 30.07 in 10.0 mi WSW 29.9 mph 35.7 mph N/A   Clear
7:36 PM 37.4 °F 24.8 °F 6.8 °F 28% 30.07 in 10.0 mi SW 31.1 mph 39.1 mph N/A   Clear
7:55 PM 37.4 °F 24.6 °F 6.8 °F 28% 30.07 in 10.0 mi WSW 32.2 mph 39.1 mph N/A   Clear
8:17 PM 37.4 °F 24.6 °F 8.6 °F 30% 30.08 in 10.0 mi SW 32.2 mph - N/A   Scattered Clouds
8:37 PM 35.6 °F 22.7 °F 5.0 °F 28% 30.08 in 10.0 mi SW 28.8 mph 36.8 mph N/A   Clear
8:54 PM 35.6 °F 22.1 °F 5.0 °F 28% 30.07 in 10.0 mi WSW 32.2 mph 40.3 mph N/A   Clear
9:14 PM 35.6 °F 23.2 °F 3.2 °F 26% 30.08 in 10.0 mi SW 26.5 mph 35.7 mph N/A   Clear
9:34 PM 33.8 °F 20.8 °F 5.0 °F 30% 30.08 in 10.0 mi WSW 26.5 mph 31.1 mph N/A   Clear
9:54 PM 33.8 °F 21.3 °F 5.0 °F 30% 30.08 in 10.0 mi WSW 24.2 mph - N/A   Clear
10:15 PM 33.8 °F 20.8 °F 5.0 °F 30% 30.08 in 10.0 mi WSW 26.5 mph - N/A   Scattered Clouds
10:36 PM 33.8 °F 20.1 °F 5.0 °F 30% 30.08 in 10.0 mi WSW 29.9 mph - N/A   Mostly Cloudy
10:52 PM 33.8 °F 20.8 °F 5.0 °F 30% 30.07 in 10.0 mi WSW 26.5 mph 31.1 mph N/A   Scattered Clouds
11:17 PM 33.8 °F 19.9 °F 5.0 °F 30% 30.07 in 10.0 mi WSW 31.1 mph - N/A   Clear
11:36 PM 33.8 °F 19.6 °F 5.0 °F 30% 30.07 in 10.0 mi WSW 32.2 mph 35.7 mph N/A   Clear
11:57 PM 32.0 °F 18.6 °F 6.8 °F 35% 30.06 in 10.0 mi WSW 25.3 mph 35.7 mph N/A   Clear